Time;durP1;ratioP1;P1;durP2;ratioP2;P2;SDS_P1;SDS_P2;PMS_P1;PMS_P2;Temp;Humidity;BMP_temperature;BMP_pressure;BME280_temperature;BME280_humidity;BME280_pressure;Samples;Min_cycle;Max_cycle;Signal;HPM_P1;HPM_P2
2021/09/26 00:00:53;;;;;;;13.70;11.13;;;;;;;19.29;57.56;98048.78;8447788;28;20204;-64
2021/09/26 00:04:58;;;;;;;15.43;11.77;;;;;;;19.10;58.55;98051.16;8448794;28;20202;-64
2021/09/26 00:09:01;;;;;;;12.40;11.20;;;;;;;19.18;57.71;98047.94;8448736;28;20533;-64
2021/09/26 00:13:06;;;;;;;15.53;11.43;;;;;;;19.08;58.34;98042.59;8448103;28;20200;-64
2021/09/26 00:17:09;;;;;;;12.90;11.70;;;;;;;19.14;57.75;98048.19;8448657;28;20199;-63
2021/09/26 00:21:12;;;;;;;13.90;12.50;;;;;;;19.05;58.65;98040.19;8454202;28;20206;-64
2021/09/26 00:25:16;;;;;;;12.90;11.50;;;;;;;18.95;58.89;98040.91;8454793;28;20222;-64
2021/09/26 00:29:20;;;;;;;13.00;11.47;;;;;;;18.93;58.46;98045.44;8454721;28;20223;-63
2021/09/26 00:33:23;;;;;;;11.83;10.63;;;;;;;18.90;58.77;98053.53;8454445;28;20225;-63
2021/09/26 00:37:26;;;;;;;13.53;11.30;;;;;;;18.93;58.87;98050.69;8454424;28;20209;-64
2021/09/26 00:41:29;;;;;;;13.00;10.97;;;;;;;18.94;58.67;98054.13;8454321;28;20407;-64
2021/09/26 00:45:33;;;;;;;15.20;11.50;;;;;;;18.92;59.01;98056.91;8454279;28;20204;-64
2021/09/26 00:49:37;;;;;;;12.10;9.90;;;;;;;18.98;58.57;98050.31;8453948;28;20230;-64
2021/09/26 00:53:41;;;;;;;11.83;10.67;;;;;;;19.03;58.66;98047.34;8453920;28;20205;-64
2021/09/26 00:57:45;;;;;;;13.03;10.57;;;;;;;18.98;58.83;98046.84;8453692;28;20230;-64
2021/09/26 01:01:50;;;;;;;13.50;11.07;;;;;;;18.88;58.87;98042.31;8453413;28;20199;-64
2021/09/26 01:06:01;;;;;;;11.90;10.70;;;;;;;18.85;59.52;98045.19;8453451;28;20199;-64
2021/09/26 01:10:10;;;;;;;11.93;10.63;;;;;;;18.90;59.09;98043.03;8453461;28;20554;-63
2021/09/26 01:14:20;;;;;;;13.93;11.00;;;;;;;18.79;59.97;98037.78;8453492;28;20199;-64
2021/09/26 01:18:29;;;;;;;12.20;10.47;;;;;;;18.68;60.12;98038.59;8453321;28;20198;-64
2021/09/26 01:22:43;;;;;;;12.80;10.47;;;;;;;18.37;61.34;98040.06;8453159;28;20198;-64
2021/09/26 01:26:48;;;;;;;13.17;10.30;;;;;;;18.60;60.70;98038.34;8452836;28;20210;-64
2021/09/26 01:30:56;;;;;;;12.30;10.40;;;;;;;18.72;60.65;98029.53;8452067;28;20222;-64
2021/09/26 01:35:00;;;;;;;14.73;10.90;;;;;;;18.39;61.37;98037.31;8452666;28;20450;-64
2021/09/26 01:39:06;;;;;;;13.57;11.17;;;;;;;18.53;60.75;98048.44;8452607;28;20210;-64
2021/09/26 01:43:11;;;;;;;15.93;10.47;;;;;;;18.76;60.25;98035.38;8452455;28;20209;-64
2021/09/26 01:47:19;;;;;;;12.60;9.57;;;;;;;18.53;60.97;98053.69;8452219;28;20387;-64
2021/09/26 01:51:23;;;;;;;15.10;10.83;;;;;;;18.70;60.41;98041.91;8451985;28;20232;-64
2021/09/26 01:55:27;;;;;;;14.10;9.63;;;;;;;18.63;60.55;98039.88;8451846;28;20226;-64
2021/09/26 01:59:31;;;;;;;10.93;9.90;;;;;;;18.76;60.02;98036.19;8451644;28;20203;-63
2021/09/26 02:03:35;;;;;;;14.53;9.30;;;;;;;18.85;59.69;98036.47;8451417;28;20198;-64
2021/09/26 02:07:41;;;;;;;10.77;9.60;;;;;;;18.69;60.54;98031.53;8451532;28;20225;-64
2021/09/26 02:11:45;;;;;;;11.37;9.83;;;;;;;18.61;60.68;98026.06;8451411;28;20404;-63
2021/09/26 02:15:48;;;;;;;10.70;9.63;;;;;;;18.72;60.42;98023.44;8451041;28;20194;-64
2021/09/26 02:19:54;;;;;;;10.83;9.67;;;;;;;18.79;60.22;98029.91;8451131;28;20202;-64
2021/09/26 02:23:58;;;;;;;13.57;9.73;;;;;;;18.78;60.23;98027.41;8451118;28;20202;-64
2021/09/26 02:28:01;;;;;;;11.93;9.60;;;;;;;18.79;59.98;98029.91;8450887;28;20198;-64
2021/09/26 02:32:04;;;;;;;10.80;9.70;;;;;;;18.69;60.79;98024.50;8450750;28;20421;-64
2021/09/26 02:36:09;;;;;;;10.83;9.73;;;;;;;18.65;60.54;98017.81;8450639;28;20218;-64
2021/09/26 02:40:12;;;;;;;11.70;9.10;;;;;;;18.72;60.07;98019.03;8450329;28;20513;-64
2021/09/26 02:44:23;;;;;;;11.73;9.20;;;;;;;18.84;59.59;98021.69;8450669;28;20513;-64
2021/09/26 02:48:27;;;;;;;13.80;10.13;;;;;;;18.58;60.80;98024.47;8450566;28;20198;-64
2021/09/26 02:52:32;;;;;;;10.00;9.07;;;;;;;18.69;60.11;98029.75;8450179;28;20237;-64
2021/09/26 02:56:37;;;;;;;15.00;9.40;;;;;;;18.68;60.34;98016.78;8449948;28;20238;-64
2021/09/26 03:00:47;;;;;;;10.13;9.10;;;;;;;18.80;59.80;98025.47;8449921;28;20214;-64
2021/09/26 03:04:50;;;;;;;11.33;9.70;;;;;;;18.79;59.74;98014.16;8449727;28;20202;-64
2021/09/26 03:08:56;;;;;;;10.77;9.47;;;;;;;18.72;59.93;97998.03;8449986;28;20220;-64
2021/09/26 03:12:59;;;;;;;14.30;9.30;;;;;;;18.70;60.03;97999.94;8449869;28;20229;-64
2021/09/26 03:17:01;;;;;;;10.33;9.23;;;;;;;18.86;59.39;98014.53;8449668;28;20479;-63
2021/09/26 03:21:05;;;;;;;9.63;8.80;;;;;;;18.94;59.16;98012.16;8449743;28;20352;-63
2021/09/26 03:25:10;;;;;;;11.70;9.33;;;;;;;18.87;59.68;98008.34;8449441;28;20204;-64
2021/09/26 03:29:13;;;;;;;10.47;9.37;;;;;;;18.75;59.49;98017.94;8449527;28;20217;-63
2021/09/26 03:33:18;;;;;;;10.23;9.10;;;;;;;18.55;60.39;98007.22;8449388;28;20229;-63
2021/09/26 03:37:22;;;;;;;9.87;8.90;;;;;;;18.73;59.71;97993.63;8449227;28;20198;-63
2021/09/26 03:41:26;;;;;;;9.57;8.60;;;;;;;18.91;59.00;98002.72;8449267;28;20202;-63
2021/09/26 03:45:29;;;;;;;9.23;8.33;;;;;;;18.95;58.84;97998.09;8449344;28;20198;-63
2021/09/26 03:49:32;;;;;;;11.10;9.10;;;;;;;18.86;58.99;98001.41;8449017;28;20252;-63
2021/09/26 03:53:35;;;;;;;9.80;8.80;;;;;;;18.94;59.10;98007.75;8450546;28;20498;-64
2021/09/26 03:57:40;;;;;;;10.33;9.07;;;;;;;18.90;58.75;97997.59;8455542;28;20557;-63
2021/09/26 04:01:43;;;;;;;9.43;8.53;;;;;;;18.94;58.90;97994.63;8455237;28;20198;-63
2021/09/26 04:05:46;;;;;;;15.70;9.20;;;;;;;18.95;59.04;97998.09;8455571;28;20385;-63
2021/09/26 04:09:49;;;;;;;9.40;8.50;;;;;;;18.94;59.21;97992.00;8455303;28;20233;-63
2021/09/26 04:13:53;;;;;;;9.70;8.33;;;;;;;18.96;58.52;97999.75;8455321;28;20494;-64
2021/09/26 04:17:56;;;;;;;10.07;9.07;;;;;;;18.98;58.56;97997.00;8455029;28;20205;-64
2021/09/26 04:21:59;;;;;;;9.80;8.60;;;;;;;18.95;58.68;97990.22;8455071;28;20203;-63
2021/09/26 04:26:02;;;;;;;9.97;8.97;;;;;;;18.85;58.82;97984.84;8454819;28;20203;-64
2021/09/26 04:30:07;;;;;;;9.47;8.47;;;;;;;18.90;58.66;97990.56;8454695;28;20417;-64
2021/09/26 04:34:13;;;;;;;9.50;8.27;;;;;;;18.84;58.86;97987.59;8454474;28;20229;-64
2021/09/26 04:38:18;;;;;;;9.53;8.57;;;;;;;18.83;58.69;97994.63;8454451;28;20216;-64
2021/09/26 04:42:21;;;;;;;9.30;8.23;;;;;;;18.78;58.67;97986.25;8454317;28;20212;-64
2021/09/26 04:46:25;;;;;;;11.60;8.63;;;;;;;18.87;58.59;97985.56;8454115;28;20198;-64
2021/09/26 04:50:28;;;;;;;9.03;8.10;;;;;;;18.84;58.96;97983.16;8454026;28;20549;-64
2021/09/26 04:54:31;;;;;;;9.73;8.30;;;;;;;18.84;58.64;97988.41;8453969;28;20198;-63
2021/09/26 04:58:34;;;;;;;9.03;8.03;;;;;;;18.86;58.62;98001.41;8453969;28;20227;-63
2021/09/26 05:02:38;;;;;;;9.23;8.33;;;;;;;18.89;58.28;98009.88;8453385;28;20228;-64
2021/09/26 05:06:41;;;;;;;9.60;8.23;;;;;;;18.81;58.80;98009.66;8452423;28;20389;-64
2021/09/26 05:10:44;;;;;;;10.20;8.20;;;;;;;18.88;58.63;98016.09;8453337;28;20229;-63
2021/09/26 05:14:48;;;;;;;10.70;9.60;;;;;;;18.90;58.59;98003.69;8453335;28;20211;-64
2021/09/26 05:18:52;;;;;;;9.50;8.60;;;;;;;18.86;58.76;98007.50;8453204;28;20407;-64
2021/09/26 05:22:55;;;;;;;9.03;8.13;;;;;;;18.88;58.44;98008.22;8453236;28;20206;-64
2021/09/26 05:26:58;;;;;;;8.77;7.50;;;;;;;18.89;58.77;98006.44;8453064;28;20198;-64
2021/09/26 05:31:01;;;;;;;9.37;8.43;;;;;;;18.90;58.25;98008.91;8452734;28;20233;-64
2021/09/26 05:35:08;;;;;;;8.97;8.10;;;;;;;18.65;59.88;98007.34;8452303;28;20219;-64
2021/09/26 05:39:10;;;;;;;9.50;8.13;;;;;;;18.93;58.72;97997.38;8452526;28;20198;-64
2021/09/26 05:43:13;;;;;;;8.80;7.97;;;;;;;18.94;58.92;98006.91;8452581;28;20202;-64
2021/09/26 05:47:16;;;;;;;8.83;7.93;;;;;;;18.98;58.78;98003.06;8452257;28;20427;-64
2021/09/26 05:51:20;;;;;;;9.57;8.20;;;;;;;19.00;58.54;98002.97;8451932;28;20234;-64
2021/09/26 05:55:24;;;;;;;11.20;8.93;;;;;;;19.02;58.95;98012.41;8451751;28;20230;-64
2021/09/26 05:59:27;;;;;;;9.70;8.70;;;;;;;19.06;58.36;98015.63;8418445;28;20312;-64
2021/09/26 06:03:30;;;;;;;9.43;8.40;;;;;;;19.10;58.72;98017.06;8437293;28;20198;-64
2021/09/26 06:07:34;;;;;;;10.43;8.87;;;;;;;18.92;58.77;98019.31;8448558;28;20206;-64
2021/09/26 06:11:37;;;;;;;9.67;8.67;;;;;;;18.97;58.96;98035.53;8450652;28;20225;-64
2021/09/26 06:15:40;;;;;;;9.33;8.33;;;;;;;19.04;58.52;98044.59;8450289;28;20517;-64
2021/09/26 06:19:43;;;;;;;9.93;9.00;;;;;;;18.90;59.07;98029.91;8448058;28;20202;-64
2021/09/26 06:23:47;;;;;;;9.93;8.93;;;;;;;19.12;58.75;98038.75;8450645;28;20202;-64
2021/09/26 06:27:50;;;;;;;10.07;8.33;;;;;;;19.26;58.75;98037.66;8451213;28;20470;-64
2021/09/26 06:31:53;;;;;;;10.00;8.63;;;;;;;19.30;58.34;98028.59;8451050;28;20222;-64
2021/09/26 06:35:57;;;;;;;10.60;9.00;;;;;;;19.26;58.76;98035.03;8450525;28;20218;-64
2021/09/26 06:40:02;;;;;;;9.90;8.87;;;;;;;19.29;58.41;98025.13;8450610;28;20205;-64
2021/09/26 06:44:05;;;;;;;10.10;9.00;;;;;;;19.22;58.69;98020.50;8450712;28;20516;-64
2021/09/26 06:48:08;;;;;;;9.37;7.67;;;;;;;19.67;57.80;98031.75;8450489;28;20387;-64
2021/09/26 06:52:12;;;;;;;8.73;7.73;;;;;;;19.95;56.56;98044.47;8450111;28;20221;-64
2021/09/26 06:56:18;;;;;;;8.20;7.40;;;;;;;19.93;57.11;98047.22;8450204;28;20431;-64
2021/09/26 07:00:23;;;;;;;8.10;7.30;;;;;;;20.17;56.11;98056.69;8450242;28;20201;-64
2021/09/26 07:04:26;;;;;;;10.03;7.90;;;;;;;20.18;56.17;98048.69;8449871;28;20210;-64
2021/09/26 07:08:28;;;;;;;9.33;8.10;;;;;;;20.12;56.20;98064.94;8449876;28;20198;-64
2021/09/26 07:12:33;;;;;;;8.60;7.80;;;;;;;20.25;55.84;98052.47;8449622;28;20234;-64
2021/09/26 07:16:36;;;;;;;8.20;7.20;;;;;;;20.36;55.81;98051.56;8449578;28;20521;-64
2021/09/26 07:20:39;;;;;;;8.77;7.87;;;;;;;20.18;56.88;98043.44;8449515;28;20200;-64
2021/09/26 07:24:42;;;;;;;13.27;7.93;;;;;;;20.14;56.96;98039.34;8449417;28;20198;-64
2021/09/26 07:28:46;;;;;;;10.00;8.07;;;;;;;20.44;56.68;98043.88;8448677;28;20398;-63
2021/09/26 07:32:50;;;;;;;10.10;8.13;;;;;;;21.05;55.14;98035.22;8449201;28;20243;-64
2021/09/26 07:36:54;;;;;;;10.13;8.03;;;;;;;21.29;54.51;98041.97;8449217;28;20210;-64
2021/09/26 07:40:58;;;;;;;8.83;7.67;;;;;;;21.55;53.76;98047.63;8449264;28;20222;-64
2021/09/26 07:45:03;;;;;;;8.67;7.70;;;;;;;21.45;53.97;98058.13;8449255;28;20482;-64
2021/09/26 07:49:06;;;;;;;10.97;9.10;;;;;;;21.36;53.89;98060.69;8449023;28;20202;-64
2021/09/26 07:53:09;;;;;;;9.50;8.57;;;;;;;21.92;52.84;98054.91;8448531;28;20392;-62
2021/09/26 07:57:12;;;;;;;8.87;7.97;;;;;;;22.32;51.85;98048.69;8448330;28;20239;-62
2021/09/26 08:01:16;;;;;;;12.20;9.30;;;;;;;21.95;53.20;98044.09;8448931;28;20385;-62
2021/09/26 08:05:23;;;;;;;10.20;8.90;;;;;;;22.08;52.87;98048.25;8448905;28;20309;-62
2021/09/26 08:09:26;;;;;;;10.13;8.23;;;;;;;22.70;51.75;98054.88;8448852;28;20211;-62
2021/09/26 08:13:29;;;;;;;10.03;8.90;;;;;;;22.73;51.57;98057.22;8448655;28;20230;-62
2021/09/26 08:17:34;;;;;;;10.83;9.47;;;;;;;23.33;50.21;98056.91;8448532;28;20205;-63
2021/09/26 08:21:37;;;;;;;10.13;9.13;;;;;;;23.18;50.99;98061.00;8447762;28;20205;-64
2021/09/26 08:25:39;;;;;;;9.10;7.87;;;;;;;23.88;49.37;98065.81;8448326;28;20380;-64
2021/09/26 08:29:42;;;;;;;11.27;8.53;;;;;;;24.09;49.08;98052.28;8447506;28;20193;-63
2021/09/26 08:33:47;;;;;;;9.13;8.23;;;;;;;24.22;49.05;98046.59;8447303;28;20226;-64
2021/09/26 08:37:50;;;;;;;11.97;9.27;;;;;;;24.04;48.92;98047.44;8448352;28;20191;-64
2021/09/26 08:41:55;;;;;;;9.07;8.10;;;;;;;24.36;48.77;98040.75;8453280;28;20206;-63
2021/09/26 08:45:58;;;;;;;8.80;7.90;;;;;;;24.36;48.94;98046.88;8454241;28;20199;-63
2021/09/26 08:50:02;;;;;;;9.20;7.90;;;;;;;24.67;47.56;98051.75;8454230;28;20200;-63
2021/09/26 08:54:05;;;;;;;8.50;7.70;;;;;;;25.04;47.17;98052.50;8454013;28;20233;-63
2021/09/26 08:58:08;;;;;;;11.17;8.50;;;;;;;25.45;46.38;98050.03;8453462;28;20236;-63
2021/09/26 09:02:11;;;;;;;8.50;7.33;;;;;;;25.69;45.64;98042.16;8453460;28;20206;-64
2021/09/26 09:06:16;;;;;;;9.57;7.33;;;;;;;26.04;44.79;98050.84;8453606;28;20493;-64
2021/09/26 09:10:20;;;;;;;10.63;7.37;;;;;;;25.99;44.97;98060.28;8453708;28;20378;-64
2021/09/26 09:14:22;;;;;;;9.07;7.30;;;;;;;26.38;44.21;98071.13;8453281;28;20227;-64
2021/09/26 09:18:26;;;;;;;8.33;6.57;;;;;;;26.84;43.99;98073.25;8453193;28;20366;-64
2021/09/26 09:22:31;;;;;;;7.27;6.57;;;;;;;26.88;43.83;98079.91;8452968;28;20203;-63
2021/09/26 09:26:38;;;;;;;8.07;6.53;;;;;;;27.04;42.93;98090.50;8452895;28;20225;-63
2021/09/26 09:30:44;;;;;;;8.17;6.73;;;;;;;26.76;43.93;98090.03;8452790;28;20203;-70
2021/09/26 09:34:47;;;;;;;10.03;6.33;;;;;;;26.76;43.14;98083.91;8448656;28;20308;-69
2021/09/26 09:38:54;;;;;;;8.77;6.50;;;;;;;26.76;43.16;98095.34;8451524;28;20192;-70
2021/09/26 09:42:57;;;;;;;8.67;6.33;;;;;;;26.64;43.71;98092.22;8451492;28;20195;-70
2021/09/26 09:47:01;;;;;;;10.23;6.30;;;;;;;26.92;42.09;98089.19;8451369;28;20201;-70
2021/09/26 09:51:05;;;;;;;8.77;6.47;;;;;;;27.03;42.57;98094.13;8450603;28;20325;-70
2021/09/26 09:55:15;;;;;;;12.00;6.60;;;;;;;27.16;42.08;98090.13;8448025;28;20258;-70
2021/09/26 09:59:32;;;;;;;7.10;5.20;;;;;;;27.49;41.98;98081.06;8450839;28;20195;-70
2021/09/26 10:03:41;;;;;;;8.73;5.27;;;;;;;27.40;41.34;98084.78;8449151;28;20216;-70
2021/09/26 10:07:44;;;;;;;7.77;5.70;;;;;;;27.57;41.15;98095.31;8451547;28;20387;-70
2021/09/26 10:11:51;;;;;;;8.47;6.27;;;;;;;27.36;41.87;98095.91;8451071;28;20238;-70
2021/09/26 10:15:54;;;;;;;8.57;6.17;;;;;;;27.35;41.69;98091.59;8451015;28;20213;-70
2021/09/26 10:19:58;;;;;;;6.47;5.27;;;;;;;27.48;41.53;98086.56;8451047;28;20206;-70
2021/09/26 10:24:02;;;;;;;9.83;5.93;;;;;;;27.37;43.08;98086.94;8450917;28;20204;-70
2021/09/26 10:28:06;;;;;;;8.50;5.70;;;;;;;27.40;42.53;98095.41;8450454;28;20219;-70
2021/09/26 10:32:11;;;;;;;15.03;6.30;;;;;;;27.31;42.14;98085.78;8446797;28;20511;-70
2021/09/26 10:36:18;;;;;;;9.30;5.00;;;;;;;27.68;41.80;98078.97;8449480;28;20203;-70
2021/09/26 10:40:21;;;;;;;6.13;4.77;;;;;;;27.61;41.29;98081.53;8449412;28;21110;-69
2021/09/26 10:44:27;;;;;;;6.47;4.70;;;;;;;27.63;41.68;98078.69;8448437;28;20519;-70
2021/09/26 10:49:01;;;;;;;7.93;5.00;;;;;;;27.72;40.95;98080.31;8450386;28;20272;-69
2021/09/26 10:53:09;;;;;;;9.70;5.50;;;;;;;27.91;41.29;98070.22;8450534;28;20227;-69
2021/09/26 10:57:21;;;;;;;9.57;5.70;;;;;;;27.90;41.15;98072.06;8450145;28;20236;-69
2021/09/26 11:01:30;;;;;;;9.87;5.37;;;;;;;27.91;41.14;98071.06;8449996;28;20201;-69
2021/09/26 11:05:38;;;;;;;8.93;5.37;;;;;;;28.09;41.50;98062.81;8449028;28;20501;-70
2021/09/26 11:09:50;;;;;;;9.67;5.00;;;;;;;28.10;40.55;98068.94;8449745;28;20396;-69
2021/09/26 11:13:58;;;;;;;9.63;5.00;;;;;;;27.97;40.84;98069.53;8449840;28;20570;-69
2021/09/26 11:18:02;;;;;;;12.13;4.80;;;;;;;27.98;40.71;98072.00;8449906;28;20201;-69
2021/09/26 11:22:09;;;;;;;9.50;5.23;;;;;;;28.10;40.28;98069.75;8449613;28;20230;-69
2021/09/26 11:26:12;;;;;;;7.63;4.87;;;;;;;27.92;40.32;98070.06;8449790;28;20220;-69
2021/09/26 11:30:26;;;;;;;10.30;4.67;;;;;;;27.74;39.82;98074.78;8449488;28;20390;-69
2021/09/26 11:34:41;;;;;;;9.80;4.50;;;;;;;28.08;40.06;98071.78;8449093;28;20234;-68
2021/09/26 11:38:44;;;;;;;12.57;4.67;;;;;;;28.16;40.47;98058.44;8449065;28;20401;-69
2021/09/26 11:42:51;;;;;;;7.83;4.40;;;;;;;28.27;40.17;98057.16;8449300;28;20508;-69
2021/09/26 11:46:55;;;;;;;8.27;5.10;;;;;;;27.84;41.26;98054.94;8449258;28;20509;-69
2021/09/26 11:51:07;;;;;;;7.30;4.70;;;;;;;27.88;40.82;98047.44;8449010;28;20404;-70
2021/09/26 11:55:11;;;;;;;9.13;4.70;;;;;;;27.47;41.86;98045.00;8448726;28;20236;-70
2021/09/26 11:59:15;;;;;;;10.83;4.83;;;;;;;27.10;41.21;98047.28;8449012;28;20208;-69
2021/09/26 12:03:23;;;;;;;12.90;5.10;;;;;;;27.08;41.99;98041.31;8448837;28;20229;-70
2021/09/26 12:07:31;;;;;;;9.17;4.40;;;;;;;27.19;42.24;98033.97;8448958;28;20200;-70
2021/09/26 12:11:46;;;;;;;17.27;5.00;;;;;;;26.97;42.50;98025.75;8449068;28;20200;-69
2021/09/26 12:15:50;;;;;;;11.67;5.00;;;;;;;26.84;43.52;98017.47;8452322;28;20225;-69
2021/09/26 12:19:58;;;;;;;21.30;4.90;;;;;;;26.62;44.10;98027.00;8455395;28;20494;-69
2021/09/26 12:24:04;;;;;;;19.00;5.57;;;;;;;26.47;44.42;98017.03;8455200;28;20212;-69
2021/09/26 12:28:09;;;;;;;9.20;4.67;;;;;;;26.28;45.11;98012.88;8455093;28;20199;-69
2021/09/26 12:32:12;;;;;;;18.57;9.10;;;;;;;26.14;45.33;98010.88;8454696;28;20200;-63
2021/09/26 12:36:17;;;;;;;14.93;6.70;;;;;;;26.02;45.61;98028.97;8454293;28;20229;-63
2021/09/26 12:40:27;;;;;;;12.50;4.93;;;;;;;25.90;46.09;98022.31;8454517;28;20386;-63
2021/09/26 12:44:33;;;;;;;5.70;4.30;;;;;;;25.93;46.34;98022.84;8454442;28;20417;-63
2021/09/26 12:48:37;;;;;;;7.60;4.57;;;;;;;25.77;46.23;98009.50;8454243;28;20199;-63
2021/09/26 12:52:41;;;;;;;9.93;4.20;;;;;;;25.66;47.08;98007.16;8453558;28;20196;-64
2021/09/26 12:56:47;;;;;;;10.77;4.90;;;;;;;25.69;48.26;98001.56;8453640;28;20530;-64
2021/09/26 13:00:50;;;;;;;9.07;4.60;;;;;;;25.72;47.27;98002.06;8453778;28;20501;-63
2021/09/26 13:05:07;;;;;;;7.53;4.10;;;;;;;25.73;48.23;98005.53;8453545;28;20269;-63
2021/09/26 13:09:15;;;;;;;12.33;4.23;;;;;;;25.57;47.90;97987.78;8453090;28;20198;-63
2021/09/26 13:13:31;;;;;;;11.30;4.63;;;;;;;25.40;47.54;97978.09;8453127;28;20226;-63
2021/09/26 13:17:35;;;;;;;7.60;3.97;;;;;;;25.35;48.73;97983.91;8453221;28;20200;-63
2021/09/26 13:21:38;;;;;;;10.53;4.33;;;;;;;25.29;50.30;97973.97;8453051;28;20220;-63
2021/09/26 13:25:43;;;;;;;7.77;4.57;;;;;;;25.23;52.00;97985.22;8452034;28;20209;-64
2021/09/26 13:29:49;;;;;;;10.90;4.40;;;;;;;25.19;52.79;97984.66;8452821;28;20199;-63
2021/09/26 13:33:56;;;;;;;8.83;4.60;;;;;;;25.30;53.82;97989.69;8452631;28;20238;-63
2021/09/26 13:38:24;;;;;;;7.60;4.53;;;;;;;25.41;53.36;97988.56;8452628;28;20201;-63
2021/09/26 13:42:31;;;;;;;13.93;4.87;;;;;;;25.21;54.72;97995.06;8452463;28;20199;-63
2021/09/26 13:46:36;;;;;;;10.37;4.97;;;;;;;25.14;54.52;97987.78;8452589;28;20217;-63
2021/09/26 13:50:39;;;;;;;7.07;5.00;;;;;;;25.03;54.24;97984.59;8452221;28;20202;-64
2021/09/26 13:54:42;;;;;;;10.60;5.13;;;;;;;25.15;54.35;97986.81;8451915;28;20420;-64
2021/09/26 13:58:45;;;;;;;11.63;5.00;;;;;;;25.07;54.49;97985.94;8451811;28;20232;-64
2021/09/26 14:02:49;;;;;;;9.77;5.00;;;;;;;25.03;54.37;97977.47;8451639;28;20490;-63
2021/09/26 14:06:53;;;;;;;12.70;5.43;;;;;;;24.90;54.41;97977.94;8451718;28;20603;-63
2021/09/26 14:10:56;;;;;;;10.33;5.47;;;;;;;25.13;54.50;97964.94;8451561;28;20212;-63
2021/09/26 14:14:59;;;;;;;12.03;5.20;;;;;;;25.16;53.66;97967.25;8451425;28;20294;-64
2021/09/26 14:19:03;;;;;;;13.47;5.80;;;;;;;25.11;53.49;97969.56;8451241;28;20202;-64
2021/09/26 14:23:07;;;;;;;10.10;5.70;;;;;;;25.05;52.36;97964.06;8451383;28;20198;-63
2021/09/26 14:27:10;;;;;;;11.67;6.20;;;;;;;25.03;53.42;97961.56;8450931;28;20205;-63
2021/09/26 14:31:14;;;;;;;10.10;5.30;;;;;;;25.19;52.09;97960.81;8450932;28;20199;-63
2021/09/26 14:35:18;;;;;;;10.00;5.70;;;;;;;25.22;51.58;97947.22;8450387;28;20229;-63
2021/09/26 14:39:22;;;;;;;8.83;5.27;;;;;;;25.18;50.45;97953.84;8450551;28;20211;-63
2021/09/26 14:43:25;;;;;;;13.20;5.67;;;;;;;25.02;50.87;97951.13;8450756;28;20200;-63
2021/09/26 14:47:28;;;;;;;10.90;5.10;;;;;;;24.98;51.70;97948.00;8450501;28;20218;-63
2021/09/26 14:51:32;;;;;;;9.00;5.43;;;;;;;25.07;51.28;97947.00;8450603;28;20514;-63
2021/09/26 14:55:35;;;;;;;13.30;5.40;;;;;;;25.17;51.51;97944.25;8449998;28;20430;-63
2021/09/26 14:59:41;;;;;;;12.70;5.53;;;;;;;25.17;51.60;97946.91;8450088;28;20508;-63
2021/09/26 15:03:43;;;;;;;8.30;4.97;;;;;;;25.20;52.07;97940.44;8449980;28;20217;-63
2021/09/26 15:08:01;;;;;;;9.43;4.63;;;;;;;25.11;52.37;97931.63;8450038;28;20212;-63
2021/09/26 15:12:07;;;;;;;11.27;5.23;;;;;;;25.11;52.04;97931.63;8449801;28;20218;-64
2021/09/26 15:16:10;;;;;;;10.90;4.83;;;;;;;24.90;52.82;97929.41;8449723;28;20225;-63
2021/09/26 15:20:15;;;;;;;11.73;4.90;;;;;;;24.82;53.14;97929.38;8449403;28;20191;-63
2021/09/26 15:24:20;;;;;;;8.97;4.97;;;;;;;24.72;53.44;97926.84;8448547;28;20201;-63
2021/09/26 15:28:23;;;;;;;9.17;4.73;;;;;;;24.67;53.12;97932.59;8446109;28;20230;-63
2021/09/26 15:32:26;;;;;;;9.07;4.73;;;;;;;24.61;54.14;97938.53;8448528;28;20197;-63
2021/09/26 15:36:28;;;;;;;11.03;5.70;;;;;;;24.57;53.67;97934.56;8448481;28;20423;-63
2021/09/26 15:40:36;;;;;;;9.03;5.80;;;;;;;24.36;53.07;97933.06;8449033;28;20195;-64
2021/09/26 15:44:39;;;;;;;9.80;5.17;;;;;;;24.30;53.05;97936.34;8449215;28;20209;-63
2021/09/26 15:48:42;;;;;;;11.63;5.67;;;;;;;24.28;53.05;97943.63;8449170;28;20209;-63
2021/09/26 15:52:45;;;;;;;8.30;5.43;;;;;;;24.14;53.48;97954.75;8455846;28;20198;-63
2021/09/26 15:56:50;;;;;;;10.37;5.20;;;;;;;24.16;53.12;97950.13;8455979;28;20250;-63
2021/09/26 16:00:55;;;;;;;12.50;5.87;;;;;;;24.06;53.18;97944.94;8455047;28;20201;-63
2021/09/26 16:04:58;;;;;;;11.07;5.80;;;;;;;24.04;53.79;97946.09;8454642;28;20202;-63
2021/09/26 16:09:01;;;;;;;9.00;5.80;;;;;;;24.01;53.17;97955.19;8454649;28;20191;-63
2021/09/26 16:13:06;;;;;;;10.40;5.70;;;;;;;24.06;53.63;97952.88;8452402;28;20200;-63
2021/09/26 16:17:09;;;;;;;9.70;5.53;;;;;;;23.98;53.82;97956.28;8454196;28;20226;-64
2021/09/26 16:21:14;;;;;;;11.40;6.07;;;;;;;23.84;53.49;97951.56;8454937;28;20202;-64
2021/09/26 16:25:18;;;;;;;9.33;5.33;;;;;;;23.81;53.16;97957.16;8454705;28;20303;-67
2021/09/26 16:29:23;;;;;;;19.53;6.87;;;;;;;23.84;53.30;97951.56;8454906;28;20197;-64
2021/09/26 16:33:29;;;;;;;12.03;5.87;;;;;;;23.61;53.16;97959.09;8454529;28;20268;-71
2021/09/26 16:37:32;;;;;;;11.07;6.17;;;;;;;23.60;53.45;97962.72;8453125;28;20525;-64
2021/09/26 16:41:37;;;;;;;11.23;6.03;;;;;;;23.68;53.14;97967.25;8453403;28;20402;-65
2021/09/26 16:45:43;;;;;;;8.43;6.40;;;;;;;23.65;53.59;97975.50;8454149;28;20209;-65
2021/09/26 16:49:46;;;;;;;9.60;5.57;;;;;;;23.50;53.61;97967.25;8453984;28;20498;-64
2021/09/26 16:53:51;;;;;;;9.33;5.70;;;;;;;23.49;53.73;97971.69;8453844;28;20420;-66
2021/09/26 16:57:54;;;;;;;7.93;6.00;;;;;;;23.46;54.43;97965.88;8453669;28;20249;-65
2021/09/26 17:01:59;;;;;;;10.07;6.00;;;;;;;23.50;54.44;97961.97;8453731;28;20201;-65
2021/09/26 17:06:01;;;;;;;9.73;6.10;;;;;;;23.46;55.21;97974.63;8452259;28;20213;-70
2021/09/26 17:10:06;;;;;;;9.60;6.10;;;;;;;23.34;54.91;97978.44;8453300;28;20194;-69
2021/09/26 17:14:09;;;;;;;15.20;8.13;;;;;;;23.31;54.99;97987.53;8453363;28;20201;-70
2021/09/26 17:18:13;;;;;;;20.23;7.60;;;;;;;23.27;55.49;97998.53;8453190;28;20206;-72
2021/09/26 17:22:16;;;;;;;9.30;6.30;;;;;;;23.21;56.03;97992.84;8453105;28;20213;-70
2021/09/26 17:26:20;;;;;;;12.37;7.10;;;;;;;23.22;55.52;97988.41;8453172;28;20202;-70
2021/09/26 17:30:25;;;;;;;9.67;7.30;;;;;;;23.14;55.62;97993.59;8452990;28;20198;-71
2021/09/26 17:34:30;;;;;;;10.67;7.43;;;;;;;23.11;55.63;97989.41;8452494;28;20218;-71
2021/09/26 17:38:33;;;;;;;11.40;7.17;;;;;;;23.06;56.07;97989.06;8452800;28;20205;-71
2021/09/26 17:42:38;;;;;;;16.63;8.77;;;;;;;23.08;54.93;97986.25;8452566;28;20209;-70
2021/09/26 17:46:40;;;;;;;13.03;7.43;;;;;;;;;;8452474;28;20209;-70
2021/09/26 17:50:45;;;;;;;10.17;6.90;;;;;;;22.94;55.23;97977.81;8452335;28;20201;-71
2021/09/26 17:54:48;;;;;;;13.33;7.43;;;;;;;22.91;55.04;97972.00;8452127;28;20229;-70
2021/09/26 17:58:51;;;;;;;11.90;7.97;;;;;;;22.89;54.71;97979.22;8451907;28;20230;-70
2021/09/26 18:02:54;;;;;;;11.10;7.07;;;;;;;22.79;54.26;97979.25;8451797;28;20380;-65
2021/09/26 18:07:00;;;;;;;12.57;7.13;;;;;;;22.76;53.89;97990.94;8451761;28;20484;-63
2021/09/26 18:11:04;;;;;;;9.07;6.63;;;;;;;22.75;54.06;97997.22;8451732;28;20233;-63
2021/09/26 18:15:10;;;;;;;10.53;6.77;;;;;;;22.69;53.86;97996.94;8450903;28;20229;-63
2021/09/26 18:19:13;;;;;;;9.23;6.87;;;;;;;22.71;53.76;97995.81;8451103;28;20194;-64
2021/09/26 18:23:19;;;;;;;8.90;6.93;;;;;;;22.80;53.93;98000.22;8451231;28;20497;-64
2021/09/26 18:27:21;;;;;;;11.07;7.53;;;;;;;22.77;53.61;98005.81;8450540;28;20195;-64
2021/09/26 18:31:24;;;;;;;9.20;6.93;;;;;;;22.68;53.80;97997.94;8450325;28;20197;-64
2021/09/26 18:35:28;;;;;;;9.30;7.10;;;;;;;22.69;54.00;98002.22;8450015;28;20441;-64
2021/09/26 18:39:33;;;;;;;9.83;6.63;;;;;;;22.60;54.19;98004.75;8449476;28;20191;-64
2021/09/26 18:43:38;;;;;;;8.83;7.60;;;;;;;22.56;54.24;97992.81;8449776;28;20200;-64
2021/09/26 18:47:40;;;;;;;15.63;7.63;;;;;;;22.54;54.49;98001.84;8449700;28;20194;-64
2021/09/26 18:51:48;;;;;;;9.97;7.63;;;;;;;22.52;54.71;97999.34;8446697;28;20269;-64
2021/09/26 18:55:53;;;;;;;9.87;7.53;;;;;;;22.48;55.00;98003.22;8449414;28;20225;-64
2021/09/26 18:59:58;;;;;;;9.13;7.60;;;;;;;22.46;55.69;97992.00;8449405;28;20197;-64
2021/09/26 19:04:01;;;;;;;8.43;7.63;;;;;;;22.31;56.44;97994.25;8449276;28;20369;-64